Kohler, WI (53044)

7:45 PM CDT on October 22, 2014 (GMT -0500)
Central | Change Station
CLOSE
Current Station
Personal Weather Station
Location: Sheboygan, WI
Elevation: 630 ft
Nearby Weather Stations

Elev 630 ft 43.74 °N, 87.73 °W | Updated 36 seconds ago

Clear
Clear
43.5 °F
Feels Like 44 °F
N
0.0
Wind Variable Wind from SW
Gusts 1.0 mph

Today
High -- | Low -- °F
--% Chance of Precip.
Yesterday
High -- | Low -- °F
Precip. -- in
7:14 AM 5:56 PM
Waning Crescent, 1% visible
Pressure 30.30 in
Visibility 10.0 miles
Clouds Clear
Windchill 44 °F
Dew Point 38 °F
Humidity 82%
Rainfall 0.00 in
Snow Depth Not available.
UV 0 out of 12
Pollen .10 out of 12
Air Quality Not available.
Flu Activity Not available.
METAR KSBM 222353Z AUTO 14003KT 10SM CLR 06/03 A3028 RMK AO2 SLP261 T00560028 10117 20056 56009

More Conditions Fewer Conditions

Pressure 30.30 in
Visibility 10.0 miles
Clouds Clear
Windchill 44 °F
Dew Point 38 °F
Humidity 82%
Rainfall 0.00 in
Snow Depth Not available.
UV 0 out of 12
Pollen .10 out of 12
Air Quality Not available.
Flu Activity Not available.
METAR KSBM 222353Z AUTO 14003KT 10SM CLR 06/03 A3028 RMK AO2 SLP261 T00560028 10117 20056 56009

More Conditions Fewer Conditions

10-Day Weather Forecast

Almanac

Astronomy

Oct. 22, 2014 Rise Set
Actual Time 7:14 AM CDT 5:56 PM CDT
Civil Twilight 6:44 AM CDT 6:25 PM CDT
Nautical Twilight 6:11 AM CDT 6:59 PM CDT
Astronomical Twilight 5:38 AM CDT 7:32 PM CDT
Moon 5:52 AM CDT (10/22) 5:24 PM CDT (10/22)
Length of Visible Light 11h 40m
Length of Day
10h 42m
Tomorrow will be 2m 48s shorter.
Waning Crescent, 1% of the Moon is Illuminated
Today
Waning Crescent
Oct 23
New
Oct 30
First Quarter
Nov 6
Full
Nov 14
Last Quarter

Today's Extremes

State Highs State Lows

Community

WunderPhotos

Upload Photos

1,764,098 photos uploaded!

WunderBlogs® & News

Nearby

Snow Depth

Station Depth Elevation
No new snow has been reported.

Earthquake Activity

City Distance Mag. Time & Date
No recent earthquake activity has been reported nearby.
Minimum magnitude displayed is 2.5.

Coastal Water Temperatures

Place Temperature
No Stations Reporting

Nearby Weather Stations